Time;durP1;ratioP1;P1;durP2;ratioP2;P2;SDS_P1;SDS_P2;PMS_P1;PMS_P2;Temp;Humidity;BMP_temperature;BMP_pressure;BME280_temperature;BME280_humidity;BME280_pressure;Samples;Min_cycle;Max_cycle;Signal;HPM_P1;HPM_P2
2022/06/09 00:01:31;;;;;;;9.60;8.07;;;;;;;16.57;100.00;99507.63;5529530;32;34086;-75
2022/06/09 00:04:39;;;;;;;11.20;8.95;;;;;;;16.61;100.00;99505.34;5529752;32;33606;-75
2022/06/09 00:07:45;;;;;;;10.05;8.50;;;;;;;16.67;100.00;99510.59;5529579;32;33821;-75
2022/06/09 00:10:56;;;;;;;12.18;8.70;;;;;;;16.60;100.00;99501.88;5529517;32;33867;-75
2022/06/09 00:13:58;;;;;;;10.95;7.97;;;;;;;16.57;100.00;99502.25;5528659;32;33828;-76
2022/06/09 00:17:01;;;;;;;9.43;8.30;;;;;;;16.64;100.00;99504.87;5529506;32;33986;-76
2022/06/09 00:20:05;;;;;;;11.27;8.15;;;;;;;16.55;100.00;99501.69;5529485;32;33872;-75
2022/06/09 00:23:08;;;;;;;11.73;7.97;;;;;;;16.51;100.00;99500.50;5529388;32;34660;-76
2022/06/09 00:26:11;;;;;;;10.95;8.40;;;;;;;16.46;100.00;99495.00;5529763;32;33935;-75
2022/06/09 00:29:14;;;;;;;11.55;8.30;;;;;;;16.46;100.00;99495.00;5528610;32;33759;-76
2022/06/09 00:32:16;;;;;;;13.48;8.25;;;;;;;16.49;100.00;99498.06;5528583;32;33716;-76
2022/06/09 00:35:19;;;;;;;9.25;8.25;;;;;;;16.45;100.00;99491.53;5529328;32;33914;-76
2022/06/09 00:38:22;;;;;;;10.20;8.18;;;;;;;16.46;100.00;99486.97;5529202;32;33637;-76
2022/06/09 00:41:26;;;;;;;11.38;7.95;;;;;;;16.47;100.00;99492.09;5529593;32;34536;-76
2022/06/09 00:44:29;;;;;;;10.68;8.50;;;;;;;16.51;100.00;99490.59;5529437;32;34209;-77
2022/06/09 00:47:33;;;;;;;10.55;8.35;;;;;;;16.56;100.00;99489.09;5529344;32;33678;-76
2022/06/09 00:50:39;;;;;;;9.95;8.02;;;;;;;16.59;100.00;99494.88;5529596;32;34044;-77
2022/06/09 00:53:42;;;;;;;15.98;7.95;;;;;;;16.62;100.00;99491.72;5529763;32;33954;-76
2022/06/09 00:56:50;;;;;;;15.02;8.60;;;;;;;16.67;100.00;99497.22;5529347;32;33924;-77
2022/06/09 01:00:02;;;;;;;11.02;7.78;;;;;;;16.70;100.00;99499.41;5528403;32;33420;-76
2022/06/09 01:03:06;;;;;;;11.65;8.05;;;;;;;16.73;100.00;99506.19;5529694;32;34163;-76
2022/06/09 01:06:18;;;;;;;10.15;7.65;;;;;;;16.77;100.00;99499.34;5529615;32;34485;-76
2022/06/09 01:09:23;;;;;;;12.05;7.82;;;;;;;16.81;100.00;99495.16;5528514;32;34516;-76
2022/06/09 01:12:30;;;;;;;8.68;7.57;;;;;;;16.83;100.00;99499.25;5529195;32;33983;-76
2022/06/09 01:15:58;;;;;;;10.52;7.70;;;;;;;16.87;100.00;99492.38;5528681;32;34548;-76
2022/06/09 01:19:07;;;;;;;10.15;7.45;;;;;;;16.91;100.00;99498.09;5529219;32;33974;-76
2022/06/09 01:22:45;;;;;;;12.07;8.10;;;;;;;16.91;100.00;99492.72;5529197;32;34424;-76
2022/06/09 01:26:09;;;;;;;9.07;7.30;;;;;;;16.91;100.00;99488.19;5495436;32;34584;-76
2022/06/09 01:29:19;;;;;;;12.45;7.87;;;;;;;16.95;100.00;99475.94;5529107;32;33606;-76
2022/06/09 01:32:39;;;;;;;10.13;7.82;;;;;;;16.95;100.00;99484.00;5528184;32;34490;-76
2022/06/09 01:35:47;;;;;;;11.02;7.50;;;;;;;17.01;100.00;99479.56;5530917;32;33998;-76
2022/06/09 01:38:53;;;;;;;9.52;7.85;;;;;;;17.12;100.00;99483.31;5528890;32;33939;-76
2022/06/09 01:41:56;;;;;;;12.43;7.32;;;;;;;17.11;100.00;99479.81;5528761;32;33920;-76
2022/06/09 01:45:05;;;;;;;9.25;7.50;;;;;;;17.11;100.00;99485.19;5529122;32;33891;-76
2022/06/09 01:48:15;;;;;;;12.13;7.57;;;;;;;17.12;100.00;99484.16;5529009;32;34352;-76
2022/06/09 01:51:21;;;;;;;8.88;7.03;;;;;;;17.12;100.00;99481.47;5527822;32;34311;-75
2022/06/09 01:54:31;;;;;;;9.63;7.18;;;;;;;17.12;100.00;99484.16;5528833;32;33621;-75
2022/06/09 01:57:38;;;;;;;9.23;7.30;;;;;;;17.13;100.00;99479.59;5528640;32;33992;-76
2022/06/09 02:00:42;;;;;;;8.32;7.28;;;;;;;17.08;100.00;99477.63;5528553;32;33838;-76
2022/06/09 02:03:49;;;;;;;9.63;6.87;;;;;;;17.11;100.00;99473.66;5528550;32;33869;-75
2022/06/09 02:06:53;;;;;;;9.05;7.60;;;;;;;17.08;100.00;99479.47;5527779;32;33837;-75
2022/06/09 02:09:56;;;;;;;8.98;7.50;;;;;;;17.06;100.00;99482.37;5527671;32;33904;-76
2022/06/09 02:13:13;;;;;;;9.57;7.20;;;;;;;17.04;100.00;99478.31;5528596;32;34666;-75
2022/06/09 02:16:21;;;;;;;15.45;7.55;;;;;;;17.00;100.00;99477.94;5528477;32;34357;-75
2022/06/09 02:19:26;;;;;;;8.93;7.20;;;;;;;17.02;100.00;99475.84;5528622;32;34433;-76
2022/06/09 02:22:29;;;;;;;10.90;7.95;;;;;;;17.28;100.00;99475.37;5527716;32;33681;-75
2022/06/09 02:25:32;;;;;;;11.38;7.93;;;;;;;17.17;100.00;99478.09;5528408;32;35429;-75
2022/06/09 02:28:35;;;;;;;9.40;7.30;;;;;;;17.17;100.00;99475.41;5527484;32;34343;-76
2022/06/09 02:31:37;;;;;;;11.18;7.70;;;;;;;17.09;100.00;99481.13;5514669;32;34394;-76
2022/06/09 02:34:41;;;;;;;11.15;7.85;;;;;;;17.04;100.00;99489.03;5527424;32;33738;-76
2022/06/09 02:37:43;;;;;;;10.20;7.18;;;;;;;16.99;100.00;99489.72;5528293;32;33713;-76
2022/06/09 02:40:47;;;;;;;13.90;8.05;;;;;;;16.93;100.00;99488.78;5527175;32;34361;-76
2022/06/09 02:43:51;;;;;;;9.15;7.57;;;;;;;17.01;100.00;99501.00;5528151;32;33585;-76
2022/06/09 02:46:54;;;;;;;10.57;7.72;;;;;;;17.04;100.00;99500.53;5528079;32;33751;-76
2022/06/09 02:49:56;;;;;;;9.77;7.65;;;;;;;17.27;100.00;99502.44;5528230;32;33772;-77
2022/06/09 02:53:00;;;;;;;9.65;7.10;;;;;;;17.18;100.00;99498.47;5527120;32;35245;-77
2022/06/09 02:56:03;;;;;;;10.18;7.53;;;;;;;17.18;100.00;99498.47;5528028;32;33835;-76
2022/06/09 02:59:06;;;;;;;9.38;7.53;;;;;;;17.17;100.00;99499.53;5526958;32;33658;-77
2022/06/09 03:02:08;;;;;;;9.32;8.05;;;;;;;17.13;100.00;99498.37;5528871;32;33993;-76
2022/06/09 03:05:11;;;;;;;9.65;7.78;;;;;;;17.12;100.00;99500.22;5530252;32;33954;-75
2022/06/09 03:08:14;;;;;;;8.65;7.10;;;;;;;17.29;100.00;99494.97;5530267;32;33806;-76
2022/06/09 03:11:17;;;;;;;9.93;7.85;;;;;;;17.44;100.00;99498.00;5530251;32;33582;-77
2022/06/09 03:14:19;;;;;;;9.80;7.15;;;;;;;17.32;100.00;99498.03;5529256;32;34473;-76
2022/06/09 03:17:23;;;;;;;11.90;7.82;;;;;;;17.26;100.00;99506.16;5529221;32;34457;-77
2022/06/09 03:20:28;;;;;;;11.12;7.40;;;;;;;17.36;100.00;99499.19;5529982;32;34632;-76
2022/06/09 03:23:31;;;;;;;12.13;7.00;;;;;;;17.52;100.00;99503.03;5529948;32;33884;-76
2022/06/09 03:26:34;;;;;;;11.57;7.85;;;;;;;17.55;100.00;99504.44;5530005;32;34490;-76
2022/06/09 03:29:37;;;;;;;10.05;7.85;;;;;;;17.59;100.00;99503.75;5529976;32;33885;-75
2022/06/09 03:32:40;;;;;;;9.65;7.32;;;;;;;17.71;100.00;99499.22;5529054;32;34551;-75
2022/06/09 03:35:43;;;;;;;8.98;7.32;;;;;;;17.77;100.00;99500.94;5542178;32;33813;-76
2022/06/09 03:38:46;;;;;;;9.95;7.62;;;;;;;17.88;100.00;99499.28;5535423;32;33341;-76
2022/06/09 03:41:48;;;;;;;8.55;7.55;;;;;;;17.83;100.00;99498.34;5530436;32;33923;-75
2022/06/09 03:44:51;;;;;;;7.53;6.68;;;;;;;17.73;100.00;99491.72;5530124;32;33833;-75
2022/06/09 03:47:54;;;;;;;8.50;6.87;;;;;;;17.84;100.00;99500.00;5528896;32;33806;-75
2022/06/09 03:50:57;;;;;;;10.63;7.57;;;;;;;17.81;100.00;99509.34;5529715;32;34508;-74
2022/06/09 03:53:59;;;;;;;8.30;7.00;;;;;;;17.73;100.00;99505.13;5529001;32;33849;-75
2022/06/09 03:57:02;;;;;;;9.40;7.30;;;;;;;17.80;100.00;99503.16;5529822;32;35019;-75
2022/06/09 04:00:08;;;;;;;11.38;7.68;;;;;;;17.95;100.00;99501.84;5529615;32;34234;-75
2022/06/09 04:03:13;;;;;;;11.10;7.45;;;;;;;17.92;100.00;99511.16;5529710;32;33709;-74
2022/06/09 04:06:23;;;;;;;9.60;7.75;;;;;;;18.15;100.00;99504.94;5528777;32;33859;-75
2022/06/09 04:09:26;;;;;;;8.55;7.12;;;;;;;18.05;100.00;99508.25;5529614;32;33861;-75
2022/06/09 04:12:29;;;;;;;12.30;8.77;;;;;;;18.06;100.00;99503.66;5529280;32;34720;-74
2022/06/09 04:15:32;;;;;;;13.52;9.40;;;;;;;17.97;100.00;99507.78;5529247;32;34386;-74
2022/06/09 04:18:34;;;;;;;10.73;8.68;;;;;;;17.99;100.00;99509.19;5529772;32;33809;-74
2022/06/09 04:21:39;;;;;;;15.95;9.90;;;;;;;17.98;100.00;99506.72;5529317;32;34098;-75
2022/06/09 04:24:41;;;;;;;15.38;11.15;;;;;;;18.10;100.00;99512.91;5529336;32;34046;-74
2022/06/09 04:27:45;;;;;;;15.23;10.95;;;;;;;18.06;100.00;99514.41;5529481;32;34497;-73
2022/06/09 04:30:48;;;;;;;17.30;11.73;;;;;;;18.27;100.00;99513.78;5540258;32;33889;-72
2022/06/09 04:33:51;;;;;;;14.87;11.32;;;;;;;18.60;100.00;99505.84;5529729;32;34550;-72
2022/06/09 04:36:54;;;;;;;13.68;10.82;;;;;;;18.88;100.00;99504.19;5529377;32;33841;-72
2022/06/09 04:39:57;;;;;;;14.00;11.20;;;;;;;18.94;100.00;99509.38;5542496;32;33838;-70
2022/06/09 04:43:01;;;;;;;19.85;13.70;;;;;;;19.22;100.00;99521.16;5533478;32;33861;-71
2022/06/09 04:46:06;;;;;;;22.25;12.82;;;;;;;19.36;100.00;99509.81;5538957;32;34056;-71
2022/06/09 04:49:08;;;;;;;17.95;12.37;;;;;;;19.66;100.00;99522.09;5536243;32;33913;-71
2022/06/09 04:52:11;;;;;;;18.55;12.68;;;;;;;19.73;100.00;99520.06;5537299;32;34601;-71
2022/06/09 04:55:16;;;;;;;14.80;11.82;;;;;;;19.86;100.00;99527.75;5548411;32;34118;-70
2022/06/09 04:58:19;;;;;;;17.95;12.27;;;;;;;20.21;100.00;99525.53;5548130;32;34334;-71
2022/06/09 05:01:31;;;;;;;15.18;11.43;;;;;;;20.39;100.00;99536.00;5547556;32;34441;-71
2022/06/09 05:04:34;;;;;;;23.40;11.80;;;;;;;20.23;100.00;99527.97;5545492;32;35004;-72
2022/06/09 05:07:39;;;;;;;16.05;12.15;;;;;;;20.28;100.00;99533.44;5540741;32;33713;-71
2022/06/09 05:10:45;;;;;;;17.15;11.48;;;;;;;20.27;100.00;99534.50;5529253;32;33724;-71
2022/06/09 05:13:47;;;;;;;15.20;11.40;;;;;;;20.53;100.00;99543.69;5528783;32;33869;-71
2022/06/09 05:16:50;;;;;;;16.37;12.13;;;;;;;20.75;100.00;99533.69;5528786;32;33729;-71
2022/06/09 05:19:53;;;;;;;13.40;11.45;;;;;;;20.18;100.00;99528.75;5527812;32;33865;-70
2022/06/09 05:22:56;;;;;;;18.55;12.13;;;;;;;20.84;100.00;99532.16;5530560;32;34033;-71
2022/06/09 05:26:00;;;;;;;12.90;10.65;;;;;;;21.17;100.00;99540.06;5528358;32;33986;-71
2022/06/09 05:29:03;;;;;;;12.95;10.55;;;;;;;21.29;100.00;99547.97;5534403;32;33940;-72
2022/06/09 05:32:07;;;;;;;12.75;9.52;;;;;;;21.44;99.66;99547.28;5534940;32;33771;-72
2022/06/09 05:35:10;;;;;;;14.43;9.35;;;;;;;21.02;100.00;99555.25;5529454;32;33650;-71
2022/06/09 05:45:04;;;;;;;12.55;9.35;;;;;;;21.46;98.22;99562.12;5546926;32;33587;-72
2022/06/09 05:48:07;;;;;;;11.20;8.45;;;;;;;21.75;95.40;99559.91;5547017;32;33950;-70
2022/06/09 05:51:12;;;;;;;9.80;8.23;;;;;;;21.92;94.71;99562.44;5533963;32;33649;-71
2022/06/09 05:54:16;;;;;;;9.48;7.82;;;;;;;21.70;93.89;99565.28;5527190;32;34394;-71
2022/06/09 05:57:20;;;;;;;8.05;6.90;;;;;;;21.46;96.60;99574.81;5527708;32;34599;-71
2022/06/09 06:00:24;;;;;;;7.25;6.47;;;;;;;21.33;97.97;99567.16;5528311;32;34297;-71
2022/06/09 06:03:27;;;;;;;8.45;6.43;;;;;;;21.47;96.63;99566.47;5540655;32;34387;-72
2022/06/09 06:06:36;;;;;;;10.25;6.95;;;;;;;21.46;96.67;99564.84;5527989;32;34217;-71
2022/06/09 06:09:45;;;;;;;11.70;8.15;;;;;;;21.30;99.44;99560.38;5527887;32;33917;-72
2022/06/09 06:12:47;;;;;;;10.38;8.50;;;;;;;21.21;97.75;99565.44;5525795;32;33873;-71
2022/06/09 06:15:51;;;;;;;13.10;7.70;;;;;;;21.56;96.84;99572.19;5525456;32;34303;-71
2022/06/09 06:18:54;;;;;;;9.98;7.20;;;;;;;21.58;95.35;99570.88;5535405;32;33997;-70
2022/06/09 06:21:57;;;;;;;10.27;7.32;;;;;;;21.56;96.48;99577.59;5527200;32;33963;-69
2022/06/09 06:25:01;;;;;;;8.20;6.68;;;;;;;21.74;95.44;99579.06;5530441;32;34217;-71
2022/06/09 06:28:05;;;;;;;12.02;7.12;;;;;;;21.79;94.37;99579.91;5527366;32;33827;-71
2022/06/09 06:31:07;;;;;;;12.55;7.50;;;;;;;21.85;94.79;99586.97;5526740;32;33991;-69
2022/06/09 06:34:11;;;;;;;11.02;8.15;;;;;;;21.62;94.59;99581.97;5526300;32;34560;-69
2022/06/09 06:37:13;;;;;;;11.40;8.48;;;;;;;21.39;96.77;99579.63;5526820;32;33758;-69
2022/06/09 06:40:17;;;;;;;11.50;8.45;;;;;;;21.22;97.59;99572.47;5527486;32;34398;-69
2022/06/09 06:43:19;;;;;;;13.30;8.10;;;;;;;21.22;100.00;99580.56;5526835;32;32468;-70
2022/06/09 06:46:22;;;;;;;10.82;8.50;;;;;;;21.22;100.00;99574.34;5526769;32;33572;-70
2022/06/09 06:49:25;;;;;;;15.43;7.32;;;;;;;21.29;100.00;99574.16;5527030;32;34526;-70
2022/06/09 06:52:28;;;;;;;9.02;7.03;;;;;;;21.21;100.00;99570.84;5526735;32;34088;-70
2022/06/09 06:55:31;;;;;;;9.93;5.93;;;;;;;21.22;100.00;99572.47;5527382;32;34325;-70
2022/06/09 06:58:37;;;;;;;7.78;4.90;;;;;;;21.41;100.00;99580.16;5527646;32;33965;-70
2022/06/09 07:01:39;;;;;;;7.85;5.22;;;;;;;21.79;94.81;99571.81;5526982;32;34425;-70
2022/06/09 07:04:42;;;;;;;7.03;5.10;;;;;;;22.20;94.52;99582.87;5527173;32;34372;-70
2022/06/09 07:07:47;;;;;;;7.20;5.65;;;;;;;22.18;92.46;99579.63;5526910;32;34558;-71
2022/06/09 07:10:51;;;;;;;7.35;5.55;;;;;;;22.59;91.35;99584.13;5526551;32;34372;-70
2022/06/09 07:13:54;;;;;;;7.20;4.53;;;;;;;22.93;87.17;99579.91;5526086;32;33928;-71
2022/06/09 07:16:57;;;;;;;6.78;4.80;;;;;;;22.61;85.62;99587.34;5525742;32;33791;-70
2022/06/09 07:20:00;;;;;;;8.25;4.55;;;;;;;22.70;85.15;99593.09;5527364;32;33962;-70
2022/06/09 07:23:02;;;;;;;7.68;5.10;;;;;;;22.94;84.66;99584.25;5527234;32;33941;-70
2022/06/09 07:26:06;;;;;;;7.90;4.87;;;;;;;22.54;85.70;99593.03;5527354;32;34424;-70
2022/06/09 07:29:09;;;;;;;5.55;3.95;;;;;;;21.81;87.63;99593.97;5525394;32;32629;-69
2022/06/09 07:32:12;;;;;;;5.53;4.05;;;;;;;21.97;91.83;99584.13;5526771;32;34607;-69
2022/06/09 07:35:19;;;;;;;5.75;4.50;;;;;;;21.88;91.41;99586.44;5526887;32;34507;-70
2022/06/09 07:38:23;;;;;;;5.93;4.25;;;;;;;21.58;89.69;99586.25;5526880;32;33877;-70
2022/06/09 07:41:26;;;;;;;5.72;4.00;;;;;;;21.70;89.05;99589.56;5525244;32;32155;-69
2022/06/09 07:44:33;;;;;;;6.65;3.58;;;;;;;21.58;88.62;99583.56;5526489;32;34357;-69
2022/06/09 07:47:37;;;;;;;15.73;4.30;;;;;;;21.40;91.46;99583.94;5525425;32;33970;-69
2022/06/09 07:50:41;;;;;;;6.25;4.32;;;;;;;21.61;90.69;99578.44;5529642;32;33866;-69
2022/06/09 07:53:45;;;;;;;6.20;4.82;;;;;;;21.61;90.98;99583.03;5529605;32;34291;-69
2022/06/09 07:56:47;;;;;;;9.38;4.47;;;;;;;21.95;91.25;99584.38;5529370;32;33981;-69
2022/06/09 07:59:52;;;;;;;6.65;4.43;;;;;;;22.50;88.11;99585.72;5515656;32;33938;-69
2022/06/09 08:02:54;;;;;;;5.55;4.28;;;;;;;23.09;81.69;99588.84;5529045;32;34226;-69
2022/06/09 08:05:57;;;;;;;6.25;4.30;;;;;;;23.52;78.71;99586.75;5529229;32;33818;-69
2022/06/09 08:09:20;;;;;;;6.57;4.00;;;;;;;23.69;78.66;99581.84;5529066;32;34518;-69
2022/06/09 08:12:23;;;;;;;8.38;3.97;;;;;;;23.71;76.47;99587.81;5529435;32;33604;-69
2022/06/09 08:15:27;;;;;;;7.55;4.07;;;;;;;23.83;74.76;99591.84;5515793;32;35451;-69
2022/06/09 08:18:30;;;;;;;6.12;3.65;;;;;;;24.45;71.96;99585.19;5515785;32;34048;-69
2022/06/09 08:21:33;;;;;;;7.80;3.20;;;;;;;25.11;68.65;99584.88;5542459;32;34285;-69
2022/06/09 08:24:58;;;;;;;8.57;3.90;;;;;;;25.35;67.53;99584.94;5511941;32;32708;-69
2022/06/09 08:28:07;;;;;;;7.07;4.20;;;;;;;24.77;69.79;99583.97;5535465;32;34487;-69
2022/06/09 08:31:11;;;;;;;7.07;4.32;;;;;;;24.89;71.81;99579.84;5535485;32;34621;-69
2022/06/09 08:34:15;;;;;;;8.50;4.25;;;;;;;24.49;73.49;99580.03;5545917;32;34563;-69
2022/06/09 08:37:17;;;;;;;5.62;4.35;;;;;;;24.72;70.04;99582.09;5544781;32;35549;-69
2022/06/09 08:40:30;;;;;;;4.07;3.62;;;;;;;25.32;68.74;99582.81;5545322;32;33857;-69
2022/06/09 08:43:57;;;;;;;5.07;3.75;;;;;;;24.81;71.03;99574.97;5535695;32;34598;-70
2022/06/09 08:47:29;;;;;;;4.78;3.50;;;;;;;24.51;68.52;99575.94;5548346;32;33791;-69
2022/06/09 08:50:54;;;;;;;4.37;2.87;;;;;;;25.82;64.16;99585.09;5533911;32;34299;-68
2022/06/09 08:54:11;;;;;;;3.47;2.50;;;;;;;26.93;60.71;99582.97;5524152;32;33947;-68
2022/06/09 08:57:17;;;;;;;5.07;3.10;;;;;;;26.96;59.01;99584.31;5528602;32;34482;-68
2022/06/09 09:00:24;;;;;;;3.95;1.83;;;;;;;26.61;59.73;99564.63;5528082;32;33737;-67
2022/06/09 09:03:41;;;;;;;4.18;1.70;;;;;;;26.66;56.29;99559.13;5514899;32;34189;-68
2022/06/09 09:06:57;;;;;;;2.60;1.55;;;;;;;26.06;56.97;99555.22;5535211;32;34046;-67
2022/06/09 09:10:10;;;;;;;2.75;2.25;;;;;;;26.76;56.21;99560.88;5548305;32;34001;-67
2022/06/09 09:13:32;;;;;;;4.47;1.77;;;;;;;27.05;56.59;99553.41;5547462;32;34215;-67
2022/06/09 09:17:00;;;;;;;3.78;1.90;;;;;;;27.30;55.80;99540.47;5547969;32;34888;-68
2022/06/09 09:20:03;;;;;;;2.90;2.00;;;;;;;27.75;54.73;99536.16;5547308;32;34283;-68
2022/06/09 09:23:19;;;;;;;5.15;1.70;;;;;;;29.17;50.88;99544.88;5547923;32;34129;-69
2022/06/09 09:26:41;;;;;;;2.80;1.55;;;;;;;28.03;52.17;99546.78;5547019;32;34471;-67
2022/06/09 09:29:54;;;;;;;6.00;1.85;;;;;;;27.81;53.10;99533.03;5535493;32;34825;-67
2022/06/09 09:33:01;;;;;;;2.70;1.75;;;;;;;29.35;49.41;99531.06;5528568;32;34613;-68
2022/06/09 09:36:15;;;;;;;3.47;1.70;;;;;;;30.17;46.78;99535.94;5514567;32;32674;-69
2022/06/09 09:39:30;;;;;;;6.45;1.70;;;;;;;31.61;44.60;99534.78;5529451;32;33991;-67
2022/06/09 09:42:36;;;;;;;2.33;1.60;;;;;;;30.62;44.77;99544.78;5538368;32;34998;-68
2022/06/09 09:45:44;;;;;;;2.10;1.62;;;;;;;30.27;45.56;99548.53;5541416;32;35138;-69
2022/06/09 09:48:48;;;;;;;3.33;2.05;;;;;;;29.77;46.54;99528.87;5547803;32;35155;-70
2022/06/09 09:51:52;;;;;;;2.05;1.75;;;;;;;28.30;50.29;99528.81;5544142;32;34312;-68
2022/06/09 09:54:55;;;;;;;5.40;2.00;;;;;;;27.77;51.54;99523.03;5533755;32;32930;-67
2022/06/09 09:58:15;;;;;;;5.40;2.00;;;;;;;26.42;57.20;99523.00;5547803;32;34025;-68
2022/06/09 10:01:21;;;;;;;2.97;1.70;;;;;;;28.15;53.75;99518.22;5547782;32;34479;-69
2022/06/09 10:15:19;;;;;;;3.05;2.05;;;;;;;36.04;33.40;99516.69;5533145;32;34531;-68
2022/06/09 10:18:44;;;;;;;2.10;1.83;;;;;;;34.14;36.62;99510.88;5521886;32;34494;-69
2022/06/09 10:22:18;;;;;;;3.92;2.22;;;;;;;32.25;39.73;99502.53;5528126;32;34569;-69
2022/06/09 10:25:45;;;;;;;4.07;1.95;;;;;;;32.29;39.63;99494.44;5528045;32;34565;-65
2022/06/09 10:29:22;;;;;;;3.55;1.85;;;;;;;33.44;37.56;99499.13;5519419;32;259995;-68
2022/06/09 10:32:33;;;;;;;2.60;1.62;;;;;;;34.41;36.15;99501.16;5528190;32;34218;-68
2022/06/09 10:35:59;;;;;;;1.85;1.40;;;;;;;30.81;41.92;99505.31;5527534;32;35070;-68
2022/06/09 10:39:22;;;;;;;2.10;1.58;;;;;;;29.60;44.30;99499.53;5527639;32;34046;-67
2022/06/09 10:42:44;;;;;;;2.00;1.58;;;;;;;27.88;47.48;99486.31;5527919;32;33530;-67
2022/06/09 10:45:58;;;;;;;1.80;1.50;;;;;;;27.44;50.40;99484.94;5527351;32;35001;-66
2022/06/09 10:56:49;;;;;;;1.75;1.42;;;;;;;32.29;37.53;99475.22;5527058;32;33699;-67
2022/06/09 10:59:56;;;;;;;1.50;1.40;;;;;;;32.07;36.65;99457.09;5505583;32;33625;-68
2022/06/09 11:03:02;;;;;;;3.12;1.60;;;;;;;33.89;35.14;99457.81;5526440;32;35099;-69
2022/06/09 11:06:25;;;;;;;2.45;1.27;;;;;;;35.33;32.12;99448.69;5527100;32;34188;-69
2022/06/09 11:10:09;;;;;;;2.00;1.40;;;;;;;37.15;29.91;99457.16;5513908;32;33756;-69
2022/06/09 11:13:21;;;;;;;3.10;1.40;;;;;;;35.48;30.36;99452.59;5526984;32;33803;-69
2022/06/09 11:16:29;;;;;;;1.95;1.50;;;;;;;34.40;33.03;99458.22;5527062;32;33781;-67
2022/06/09 11:19:35;;;;;;;3.58;1.40;;;;;;;36.52;32.35;99452.69;5512968;32;32650;-68
2022/06/09 11:23:08;;;;;;;2.47;1.27;;;;;;;37.16;28.65;99429.13;5515067;32;33912;-69
2022/06/09 11:26:33;;;;;;;2.40;1.45;;;;;;;39.65;26.12;99436.78;5515364;32;33301;-69
2022/06/09 11:29:45;;;;;;;1.77;1.30;;;;;;;38.67;26.10;99426.31;5529030;32;33001;-68
2022/06/09 11:33:40;;;;;;;20.83;3.65;;;;;;;34.96;31.27;99430.69;5529260;32;33670;-69
2022/06/09 11:37:00;;;;;;;4.95;2.25;;;;;;;31.26;51.69;99423.56;5498880;32;35097;-70
2022/06/09 11:40:16;;;;;;;8.32;3.65;;;;;;;25.36;73.75;99420.94;5515496;32;33319;-70
2022/06/09 11:43:43;;;;;;;8.45;3.40;;;;;;;22.66;100.00;99411.63;5529497;32;33453;-69
2022/06/09 11:46:49;;;;;;;5.30;3.40;;;;;;;21.91;100.00;99407.69;5516100;32;34428;-69
2022/06/09 11:49:57;;;;;;;6.72;3.67;;;;;;;21.81;100.00;99398.75;5529365;32;34617;-70
2022/06/09 11:53:01;;;;;;;5.40;3.80;;;;;;;24.91;100.00;99398.59;5515566;32;34548;-70
2022/06/09 11:56:33;;;;;;;5.80;3.80;;;;;;;26.17;81.43;99390.87;5529348;32;34452;-70
2022/06/09 11:59:53;;;;;;;5.28;3.75;;;;;;;26.01;88.12;99391.37;5529613;32;34621;-70
2022/06/09 12:03:02;;;;;;;;;;;;;;;24.86;89.84;99390.47;5529297;32;33916;-71
2022/06/09 12:06:39;;;;;;;14.77;5.87;;;;;;;23.96;99.67;99413.59;5515969;32;35041;-71
2022/06/09 12:10:02;;;;;;;17.77;6.57;;;;;;;22.76;100.00;99436.00;5529413;32;34338;-70
2022/06/09 12:13:17;;;;;;;5.25;2.40;;;;;;;21.53;100.00;99449.38;5515823;32;34386;-73
2022/06/09 12:16:35;;;;;;;3.70;1.70;;;;;;;19.87;100.00;99462.91;5529905;32;34488;-74
2022/06/09 12:19:51;;;;;;;4.70;2.12;;;;;;;18.02;100.00;99444.28;5515930;32;33759;-70
2022/06/09 12:23:21;;;;;;;3.05;2.53;;;;;;;17.27;100.00;99454.19;5529074;32;33811;-72
2022/06/09 12:26:48;;;;;;;2.78;2.12;;;;;;;17.14;100.00;99462.44;5518426;32;33944;-70
2022/06/09 12:29:57;;;;;;;3.08;2.40;;;;;;;17.21;100.00;99447.91;5515171;32;34142;-74
2022/06/09 12:33:25;;;;;;;4.43;2.62;;;;;;;17.08;100.00;99442.78;5529077;32;33669;-71
2022/06/09 12:36:43;;;;;;;3.03;2.70;;;;;;;17.03;100.00;99437.31;5528991;32;34620;-70
2022/06/09 12:39:49;;;;;;;3.53;1.80;;;;;;;17.11;100.00;99441.50;5529336;32;33695;-68
2022/06/09 12:42:57;;;;;;;2.85;2.08;;;;;;;17.18;100.00;99434.16;5528334;32;34430;-67
2022/06/09 12:46:25;;;;;;;3.90;2.20;;;;;;;17.32;100.00;99438.22;5528805;32;33784;-69
2022/06/09 12:49:36;;;;;;;2.45;2.20;;;;;;;17.51;100.00;99450.44;5534536;32;33936;-68
2022/06/09 12:52:45;;;;;;;4.62;2.50;;;;;;;17.72;100.00;99441.78;5521967;32;32663;-69
2022/06/09 12:55:58;;;;;;;3.45;2.35;;;;;;;18.16;100.00;99452.87;5548427;32;34492;-67
2022/06/09 12:59:25;;;;;;;3.20;2.50;;;;;;;18.51;100.00;99445.47;5547771;32;33678;-69
2022/06/09 13:02:31;;;;;;;2.03;1.65;;;;;;;21.25;100.00;99450.53;5534455;32;34745;-69
2022/06/09 13:05:36;;;;;;;2.72;1.60;;;;;;;24.14;78.65;99459.81;5521400;32;33241;-72
2022/06/09 13:08:45;;;;;;;2.17;1.58;;;;;;;23.09;80.51;99452.78;5508464;32;33521;-72
2022/06/09 13:15:36;;;;;;;2.75;1.70;;;;;;;24.78;77.09;99441.81;5549714;32;34008;-70
2022/06/09 13:18:44;;;;;;;1.87;1.55;;;;;;;29.26;61.32;99442.75;5534496;32;33840;-70
2022/06/09 13:21:48;;;;;;;2.80;1.83;;;;;;;28.61;66.67;99445.16;5534336;32;32286;-70
2022/06/09 13:24:56;;;;;;;3.35;2.10;;;;;;;27.36;67.34;99431.13;5547416;32;34862;-70
2022/06/09 13:27:59;;;;;;;5.47;2.00;;;;;;;28.38;63.12;99429.87;5533704;32;34872;-70
2022/06/09 13:31:26;;;;;;;5.85;1.73;;;;;;;25.79;70.18;99435.41;5528382;32;33876;-70
2022/06/09 13:34:35;;;;;;;1.98;1.30;;;;;;;22.86;81.16;99430.59;5515160;32;33736;-72
2022/06/09 13:37:44;;;;;;;3.58;1.50;;;;;;;21.87;89.62;99443.59;5528607;32;34000;-70
2022/06/09 13:40:58;;;;;;;3.35;1.30;;;;;;;20.66;97.17;99448.97;5520942;32;32346;-70
2022/06/09 13:44:14;;;;;;;5.37;1.20;;;;;;;19.88;100.00;99472.63;5523161;32;33662;-69
2022/06/09 13:47:21;;;;;;;5.70;1.25;;;;;;;19.68;100.00;99475.06;5529073;32;33888;-70
2022/06/09 13:50:36;;;;;;;5.25;1.30;;;;;;;19.38;100.00;99486.16;5532738;32;33853;-68
2022/06/09 13:53:50;;;;;;;6.50;1.83;;;;;;;19.15;100.00;99504.34;5530787;32;34643;-71
2022/06/09 13:56:53;;;;;;;8.73;3.17;;;;;;;18.49;100.00;99562.28;5514327;32;34264;-73
2022/06/09 13:59:55;;;;;;;13.35;3.28;;;;;;;17.96;100.00;99559.84;5501477;32;32356;-73
2022/06/09 14:03:05;;;;;;;7.90;3.00;;;;;;;17.66;100.00;99538.50;5514295;32;33550;-70
2022/06/09 14:06:13;;;;;;;6.37;2.92;;;;;;;17.49;100.00;99553.63;5528750;32;33721;-70
2022/06/09 14:09:17;;;;;;;3.87;2.60;;;;;;;17.16;100.00;99548.81;5514415;32;33904;-70
2022/06/09 14:12:20;;;;;;;5.32;2.72;;;;;;;16.95;100.00;99550.16;5528668;32;34351;-69
2022/06/09 14:15:25;;;;;;;8.40;3.40;;;;;;;16.78;100.00;99544.66;5528790;32;34699;-73
2022/06/09 14:18:32;;;;;;;6.35;2.30;;;;;;;16.77;100.00;99542.19;5514991;32;33883;-73
2022/06/09 14:21:35;;;;;;;3.85;2.58;;;;;;;16.75;100.00;99546.97;5528059;32;34335;-71
2022/06/09 14:24:37;;;;;;;5.53;3.17;;;;;;;16.61;100.00;99549.00;5513451;32;33509;-70
2022/06/09 14:27:41;;;;;;;7.28;2.95;;;;;;;16.71;100.00;99530.53;5514079;32;34506;-71
2022/06/09 14:30:44;;;;;;;8.40;2.85;;;;;;;16.78;100.00;99519.72;5528140;32;34346;-71
2022/06/09 14:33:46;;;;;;;4.60;2.90;;;;;;;16.74;100.00;99532.75;5528008;32;33575;-70
2022/06/09 14:36:51;;;;;;;7.65;3.70;;;;;;;16.65;100.00;99552.88;5514810;32;33880;-72
2022/06/09 14:39:54;;;;;;;6.62;3.30;;;;;;;16.64;100.00;99553.09;5532524;32;34625;-73
2022/06/09 14:42:57;;;;;;;6.32;3.60;;;;;;;16.67;100.00;99532.03;5534573;32;34533;-73
2022/06/09 14:46:00;;;;;;;5.37;3.45;;;;;;;16.79;100.00;99516.81;5520136;32;34608;-74
2022/06/09 14:49:04;;;;;;;6.78;3.55;;;;;;;16.80;100.00;99514.94;5527252;32;33642;-73
2022/06/09 14:52:09;;;;;;;8.27;3.65;;;;;;;16.76;100.00;99524.47;5513813;32;34740;-73
2022/06/09 14:55:13;;;;;;;11.10;4.10;;;;;;;16.72;100.00;99528.66;5528486;32;33835;-71
2022/06/09 14:58:20;;;;;;;5.95;3.87;;;;;;;16.69;100.00;99524.59;5543399;32;34420;-72
2022/06/09 15:01:23;;;;;;;8.65;3.90;;;;;;;16.77;100.00;99520.75;5542725;32;34561;-70
2022/06/09 15:04:25;;;;;;;7.10;3.92;;;;;;;16.67;100.00;99524.00;5528457;32;33832;-69